sensor_id;sensor_type;location;lat;lon;timestamp;pressure;altitude;pressure_sealevel;temperature;humidity
43683;BME280;29285;52.128;21.060;2022-08-01T00:04:12;99967.98;;;16.13;82.27
43683;BME280;29285;52.128;21.060;2022-08-01T00:09:13;99967.28;;;16.09;82.29
43683;BME280;29285;52.128;21.060;2022-08-01T00:14:15;99968.50;;;16.11;82.38
43683;BME280;29285;52.128;21.060;2022-08-01T00:19:16;99958.34;;;16.03;82.39
43683;BME280;29285;52.128;21.060;2022-08-01T00:24:17;99956.48;;;15.96;82.39
43683;BME280;29285;52.128;21.060;2022-08-01T00:29:19;99958.81;;;15.92;82.45
43683;BME280;29285;52.128;21.060;2022-08-01T00:34:20;99950.30;;;15.87;82.50
43683;BME280;29285;52.128;21.060;2022-08-01T00:39:21;99940.91;;;15.81;82.55
43683;BME280;29285;52.128;21.060;2022-08-01T00:44:23;99938.35;;;15.80;82.61
43683;BME280;29285;52.128;21.060;2022-08-01T00:49:24;99939.22;;;15.80;82.74
43683;BME280;29285;52.128;21.060;2022-08-01T00:54:26;99938.35;;;15.80;82.80
43683;BME280;29285;52.128;21.060;2022-08-01T00:59:29;99938.08;;;15.86;83.00
43683;BME280;29285;52.128;21.060;2022-08-01T01:04:31;99941.63;;;15.95;83.16
43683;BME280;29285;52.128;21.060;2022-08-01T01:15:28;99947.02;;;15.82;83.11
43683;BME280;29285;52.128;21.060;2022-08-01T01:20:47;99940.37;;;15.83;83.15
43683;BME280;29285;52.128;21.060;2022-08-01T01:31:02;99940.72;;;15.75;83.19
43683;BME280;29285;52.128;21.060;2022-08-01T01:36:06;99942.77;;;15.79;83.28
43683;BME280;29285;52.128;21.060;2022-08-01T01:41:11;99940.33;;;15.74;83.33
43683;BME280;29285;52.128;21.060;2022-08-01T01:46:17;99940.98;;;15.69;83.31
43683;BME280;29285;52.128;21.060;2022-08-01T01:51:23;99944.27;;;15.64;83.33
43683;BME280;29285;52.128;21.060;2022-08-01T01:56:27;99944.88;;;15.60;83.33
43683;BME280;29285;52.128;21.060;2022-08-01T02:06:31;99935.70;;;15.50;83.35
43683;BME280;29285;52.128;21.060;2022-08-01T02:11:35;99934.90;;;15.48;83.41
43683;BME280;29285;52.128;21.060;2022-08-01T02:16:40;99935.05;;;15.45;83.45
43683;BME280;29285;52.128;21.060;2022-08-01T02:22:00;99927.52;;;15.37;83.46
43683;BME280;29285;52.128;21.060;2022-08-01T02:27:07;99934.39;;;15.29;83.45
43683;BME280;29285;52.128;21.060;2022-08-01T02:32:14;99939.81;;;15.25;83.44
43683;BME280;29285;52.128;21.060;2022-08-01T02:37:19;99941.66;;;15.22;83.50
43683;BME280;29285;52.128;21.060;2022-08-01T02:42:23;99940.34;;;15.22;83.57
43683;BME280;29285;52.128;21.060;2022-08-01T02:47:27;99945.70;;;15.19;83.60
43683;BME280;29285;52.128;21.060;2022-08-01T02:52:30;99949.39;;;15.15;83.58
43683;BME280;29285;52.128;21.060;2022-08-01T02:57:34;99951.20;;;15.13;83.57
43683;BME280;29285;52.128;21.060;2022-08-01T03:02:37;99947.81;;;15.11;83.62
43683;BME280;29285;52.128;21.060;2022-08-01T03:07:39;99952.39;;;15.06;83.63
43683;BME280;29285;52.128;21.060;2022-08-01T03:12:43;99952.50;;;15.03;83.60
43683;BME280;29285;52.128;21.060;2022-08-01T03:17:46;99946.59;;;14.98;83.62
43683;BME280;29285;52.128;21.060;2022-08-01T03:22:49;99946.66;;;14.96;83.60
43683;BME280;29285;52.128;21.060;2022-08-01T03:27:58;99947.77;;;14.90;83.61
43683;BME280;29285;52.128;21.060;2022-08-01T03:33:02;99941.87;;;14.85;83.61
43683;BME280;29285;52.128;21.060;2022-08-01T03:38:05;99949.89;;;14.80;83.58
43683;BME280;29285;52.128;21.060;2022-08-01T03:43:16;99956.11;;;14.78;83.61
43683;BME280;29285;52.128;21.060;2022-08-01T03:48:31;99968.70;;;14.80;83.69
43683;BME280;29285;52.128;21.060;2022-08-01T03:53:35;99967.45;;;14.78;83.74
43683;BME280;29285;52.128;21.060;2022-08-01T03:58:41;99969.59;;;14.79;83.82
43683;BME280;29285;52.128;21.060;2022-08-01T04:03:44;99976.14;;;14.79;83.88
43683;BME280;29285;52.128;21.060;2022-08-01T04:08:46;99987.53;;;14.78;83.91
43683;BME280;29285;52.128;21.060;2022-08-01T04:13:52;99986.61;;;14.79;83.96
43683;BME280;29285;52.128;21.060;2022-08-01T04:18:54;99994.75;;;14.83;84.04
43683;BME280;29285;52.128;21.060;2022-08-01T04:23:59;99995.03;;;14.87;84.16
43683;BME280;29285;52.128;21.060;2022-08-01T04:29:05;99996.62;;;14.91;84.21
43683;BME280;29285;52.128;21.060;2022-08-01T04:34:08;99998.66;;;14.95;84.26
43683;BME280;29285;52.128;21.060;2022-08-01T04:39:10;99997.74;;;14.96;84.28
43683;BME280;29285;52.128;21.060;2022-08-01T04:44:13;100002.97;;;15.18;84.48
43683;BME280;29285;52.128;21.060;2022-08-01T04:49:15;100001.91;;;15.45;84.81
43683;BME280;29285;52.128;21.060;2022-08-01T04:54:17;100006.95;;;15.60;84.97
43683;BME280;29285;52.128;21.060;2022-08-01T04:59:19;100003.67;;;15.75;85.01
43683;BME280;29285;52.128;21.060;2022-08-01T05:04:41;100012.09;;;15.94;85.11
43683;BME280;29285;52.128;21.060;2022-08-01T05:09:43;100016.87;;;15.84;84.85
43683;BME280;29285;52.128;21.060;2022-08-01T05:14:46;100017.44;;;15.81;84.57
43683;BME280;29285;52.128;21.060;2022-08-01T05:19:47;100022.45;;;15.66;84.32
43683;BME280;29285;52.128;21.060;2022-08-01T05:24:48;100023.34;;;15.55;84.10
43683;BME280;29285;52.128;21.060;2022-08-01T05:29:49;100025.69;;;15.51;83.98
43683;BME280;29285;52.128;21.060;2022-08-01T05:34:51;100031.27;;;15.53;84.01
43683;BME280;29285;52.128;21.060;2022-08-01T05:39:52;100030.05;;;15.52;84.02
43683;BME280;29285;52.128;21.060;2022-08-01T05:44:53;100041.17;;;15.46;83.97
43683;BME280;29285;52.128;21.060;2022-08-01T05:49:54;100041.52;;;15.59;84.01
43683;BME280;29285;52.128;21.060;2022-08-01T05:54:56;100036.73;;;15.80;84.08
43683;BME280;29285;52.128;21.060;2022-08-01T05:59:57;100047.97;;;15.94;84.16
43683;BME280;29285;52.128;21.060;2022-08-01T06:04:58;100047.06;;;16.05;84.15
43683;BME280;29285;52.128;21.060;2022-08-01T06:09:59;100049.63;;;16.07;83.97
43683;BME280;29285;52.128;21.060;2022-08-01T06:15:00;100053.12;;;16.26;84.00
43683;BME280;29285;52.128;21.060;2022-08-01T06:20:02;100048.11;;;16.41;84.02
43683;BME280;29285;52.128;21.060;2022-08-01T06:25:05;100057.53;;;16.56;83.99
43683;BME280;29285;52.128;21.060;2022-08-01T06:30:08;100055.41;;;16.64;83.88
43683;BME280;29285;52.128;21.060;2022-08-01T06:35:09;100061.02;;;16.75;83.79
43683;BME280;29285;52.128;21.060;2022-08-01T06:40:11;100056.91;;;16.89;83.71
43683;BME280;29285;52.128;21.060;2022-08-01T06:45:13;100056.69;;;17.02;83.68
43683;BME280;29285;52.128;21.060;2022-08-01T06:50:15;100058.30;;;17.15;83.62
43683;BME280;29285;52.128;21.060;2022-08-01T06:55:16;100054.64;;;17.28;83.53
43683;BME280;29285;52.128;21.060;2022-08-01T07:00:19;100051.84;;;17.40;83.42
43683;BME280;29285;52.128;21.060;2022-08-01T07:05:25;100054.72;;;17.53;83.35
43683;BME280;29285;52.128;21.060;2022-08-01T07:10:27;100043.36;;;17.70;83.28
43683;BME280;29285;52.128;21.060;2022-08-01T07:15:28;100053.58;;;17.85;83.21
43683;BME280;29285;52.128;21.060;2022-08-01T07:20:29;100045.36;;;17.92;83.01
43683;BME280;29285;52.128;21.060;2022-08-01T07:25:31;100051.33;;;18.04;82.84
43683;BME280;29285;52.128;21.060;2022-08-01T07:30:32;100049.72;;;18.10;82.63
43683;BME280;29285;52.128;21.060;2022-08-01T07:35:33;100045.89;;;18.16;82.40
43683;BME280;29285;52.128;21.060;2022-08-01T07:40:35;100040.22;;;18.24;82.25
43683;BME280;29285;52.128;21.060;2022-08-01T07:45:36;100039.91;;;18.30;82.05
43683;BME280;29285;52.128;21.060;2022-08-01T07:50:37;100034.92;;;18.42;81.90
43683;BME280;29285;52.128;21.060;2022-08-01T07:55:39;100037.47;;;18.59;81.82
43683;BME280;29285;52.128;21.060;2022-08-01T08:00:40;100037.41;;;18.77;81.74
43683;BME280;29285;52.128;21.060;2022-08-01T08:05:41;100029.94;;;18.85;81.49
43683;BME280;29285;52.128;21.060;2022-08-01T08:10:43;100028.91;;;19.04;81.33
43683;BME280;29285;52.128;21.060;2022-08-01T08:15:44;100046.64;;;19.09;81.02
43683;BME280;29285;52.128;21.060;2022-08-01T08:20:45;100043.84;;;19.12;80.61
43683;BME280;29285;52.128;21.060;2022-08-01T08:25:47;100043.78;;;19.21;80.29
43683;BME280;29285;52.128;21.060;2022-08-01T08:30:48;100049.06;;;19.21;79.93
43683;BME280;29285;52.128;21.060;2022-08-01T08:35:49;100044.95;;;19.31;79.67
43683;BME280;29285;52.128;21.060;2022-08-01T08:40:51;100052.80;;;19.40;79.40
43683;BME280;29285;52.128;21.060;2022-08-01T08:45:53;100063.48;;;19.53;79.15
43683;BME280;29285;52.128;21.060;2022-08-01T08:50:55;100059.38;;;19.64;78.94
43683;BME280;29285;52.128;21.060;2022-08-01T08:55:57;100059.04;;;19.70;78.64
43683;BME280;29285;52.128;21.060;2022-08-01T09:00:59;100055.57;;;19.84;78.36
43683;BME280;29285;52.128;21.060;2022-08-01T09:06:00;100067.73;;;19.94;78.12
43683;BME280;29285;52.128;21.060;2022-08-01T09:11:03;100066.39;;;20.03;77.73
43683;BME280;29285;52.128;21.060;2022-08-01T09:16:05;100075.53;;;20.19;77.61
43683;BME280;29285;52.128;21.060;2022-08-01T09:21:09;100072.45;;;20.34;77.41
43683;BME280;29285;52.128;21.060;2022-08-01T09:26:17;100078.30;;;20.39;77.12
43683;BME280;29285;52.128;21.060;2022-08-01T09:31:19;100077.34;;;20.40;76.67
43683;BME280;29285;52.128;21.060;2022-08-01T09:36:22;100080.55;;;20.45;76.34
43683;BME280;29285;52.128;21.060;2022-08-01T09:41:30;100091.51;;;20.54;76.08
43683;BME280;29285;52.128;21.060;2022-08-01T09:46:32;100081.69;;;20.63;75.86
43683;BME280;29285;52.128;21.060;2022-08-01T09:51:39;100079.42;;;20.64;75.47
43683;BME280;29285;52.128;21.060;2022-08-01T09:56:40;100083.45;;;20.70;75.10
43683;BME280;29285;52.128;21.060;2022-08-01T10:01:48;100084.78;;;20.77;74.83
43683;BME280;29285;52.128;21.060;2022-08-01T10:06:50;100087.25;;;20.87;74.63
43683;BME280;29285;52.128;21.060;2022-08-01T10:11:55;100089.43;;;20.88;74.22
43683;BME280;29285;52.128;21.060;2022-08-01T10:16:58;100078.36;;;20.96;73.89
43683;BME280;29285;52.128;21.060;2022-08-01T10:22:00;100084.63;;;21.08;73.71
43683;BME280;29285;52.128;21.060;2022-08-01T10:27:04;100080.17;;;21.15;73.40
43683;BME280;29285;52.128;21.060;2022-08-01T10:32:08;100089.20;;;21.26;73.17
43683;BME280;29285;52.128;21.060;2022-08-01T10:37:12;100076.83;;;21.34;72.83
43683;BME280;29285;52.128;21.060;2022-08-01T10:42:14;100076.73;;;21.48;72.55
43683;BME280;29285;52.128;21.060;2022-08-01T10:53:20;100079.38;;;21.76;72.00
43683;BME280;29285;52.128;21.060;2022-08-01T10:58:28;100071.08;;;22.01;71.73
43683;BME280;29285;52.128;21.060;2022-08-01T11:03:36;100067.87;;;22.03;71.18
43683;BME280;29285;52.128;21.060;2022-08-01T11:08:38;100060.72;;;22.11;70.84
43683;BME280;29285;52.128;21.060;2022-08-01T11:14:00;100070.09;;;22.22;70.53
43683;BME280;29285;52.128;21.060;2022-08-01T11:19:04;100065.84;;;22.19;70.13
43683;BME280;29285;52.128;21.060;2022-08-01T11:24:06;100063.39;;;22.29;69.83
43683;BME280;29285;52.128;21.060;2022-08-01T11:29:16;100059.35;;;22.50;69.59
43683;BME280;29285;52.128;21.060;2022-08-01T11:34:18;100066.86;;;22.69;69.33
43683;BME280;29285;52.128;21.060;2022-08-01T11:39:19;100064.17;;;22.82;68.99
43683;BME280;29285;52.128;21.060;2022-08-01T11:44:22;100058.91;;;23.06;68.72
43683;BME280;29285;52.128;21.060;2022-08-01T11:49:48;100059.22;;;23.26;68.40
43683;BME280;29285;52.128;21.060;2022-08-01T11:54:58;100063.09;;;23.27;67.66
43683;BME280;29285;52.128;21.060;2022-08-01T12:00:10;100060.28;;;23.36;67.10
43683;BME280;29285;52.128;21.060;2022-08-01T12:05:15;100057.09;;;23.61;66.76
43683;BME280;29285;52.128;21.060;2022-08-01T12:10:20;100058.27;;;23.99;66.66
43683;BME280;29285;52.128;21.060;2022-08-01T12:15:24;100052.20;;;23.85;65.99
43683;BME280;29285;52.128;21.060;2022-08-01T12:20:29;100055.98;;;24.05;65.58
43683;BME280;29285;52.128;21.060;2022-08-01T12:25:32;100055.55;;;24.29;65.17
43683;BME280;29285;52.128;21.060;2022-08-01T12:30:35;100048.18;;;24.38;64.49
43683;BME280;29285;52.128;21.060;2022-08-01T12:35:38;100050.80;;;24.61;64.25
43683;BME280;29285;52.128;21.060;2022-08-01T12:40:43;100045.48;;;24.61;63.57
43683;BME280;29285;52.128;21.060;2022-08-01T12:45:47;100047.05;;;24.87;63.29
43683;BME280;29285;52.128;21.060;2022-08-01T12:50:51;100050.38;;;25.00;62.77
43683;BME280;29285;52.128;21.060;2022-08-01T12:55:57;100048.17;;;25.17;62.21
43683;BME280;29285;52.128;21.060;2022-08-01T13:01:05;100037.11;;;25.48;61.91
43683;BME280;29285;52.128;21.060;2022-08-01T13:06:12;100033.69;;;25.63;61.38
43683;BME280;29285;52.128;21.060;2022-08-01T13:11:15;100033.96;;;25.76;60.86
43683;BME280;29285;52.128;21.060;2022-08-01T13:16:22;100034.51;;;25.85;60.19
43683;BME280;29285;52.128;21.060;2022-08-01T13:21:28;100036.17;;;25.92;59.66
43683;BME280;29285;52.128;21.060;2022-08-01T13:26:47;100031.91;;;25.95;59.10
43683;BME280;29285;52.128;21.060;2022-08-01T13:31:55;100031.19;;;26.09;58.71
43683;BME280;29285;52.128;21.060;2022-08-01T13:36:57;100030.83;;;26.23;58.34
43683;BME280;29285;52.128;21.060;2022-08-01T13:41:58;100032.80;;;26.21;57.72
43683;BME280;29285;52.128;21.060;2022-08-01T13:46:59;100037.27;;;26.26;57.25
43683;BME280;29285;52.128;21.060;2022-08-01T13:52:01;100025.12;;;26.43;56.91
43683;BME280;29285;52.128;21.060;2022-08-01T13:57:03;100026.05;;;26.58;56.50
43683;BME280;29285;52.128;21.060;2022-08-01T14:02:04;100035.77;;;26.59;56.01
43683;BME280;29285;52.128;21.060;2022-08-01T14:07:06;100038.18;;;26.82;55.79
43683;BME280;29285;52.128;21.060;2022-08-01T14:12:07;100045.41;;;27.11;55.70
43683;BME280;29285;52.128;21.060;2022-08-01T14:17:09;100050.67;;;27.07;55.04
43683;BME280;29285;52.128;21.060;2022-08-01T14:22:10;100038.88;;;27.29;54.67
43683;BME280;29285;52.128;21.060;2022-08-01T14:27:11;100045.03;;;27.79;54.68
43683;BME280;29285;52.128;21.060;2022-08-01T14:32:13;100046.01;;;28.02;54.15
43683;BME280;29285;52.128;21.060;2022-08-01T14:37:14;100051.77;;;28.31;53.70
43683;BME280;29285;52.128;21.060;2022-08-01T14:42:15;100049.80;;;28.23;52.68
43683;BME280;29285;52.128;21.060;2022-08-01T14:47:16;100046.06;;;28.06;52.12
43683;BME280;29285;52.128;21.060;2022-08-01T14:52:18;100038.37;;;28.17;51.87
43683;BME280;29285;52.128;21.060;2022-08-01T14:57:20;100054.36;;;28.51;51.75
43683;BME280;29285;52.128;21.060;2022-08-01T15:02:21;100046.83;;;28.64;51.23
43683;BME280;29285;52.128;21.060;2022-08-01T15:07:23;100057.23;;;28.39;50.52
43683;BME280;29285;52.128;21.060;2022-08-01T15:12:25;100058.30;;;28.61;50.37
43683;BME280;29285;52.128;21.060;2022-08-01T15:17:28;100058.17;;;28.76;49.97
43683;BME280;29285;52.128;21.060;2022-08-01T15:22:33;100066.90;;;28.64;49.30
43683;BME280;29285;52.128;21.060;2022-08-01T15:27:34;100068.08;;;28.52;48.86
43683;BME280;29285;52.128;21.060;2022-08-01T15:32:36;100060.78;;;28.58;48.61
43683;BME280;29285;52.128;21.060;2022-08-01T15:37:37;100059.98;;;28.10;48.08
43683;BME280;29285;52.128;21.060;2022-08-01T15:42:38;100056.17;;;27.15;47.50
43683;BME280;29285;52.128;21.060;2022-08-01T15:47:40;100056.17;;;27.15;47.50
43683;BME280;29285;52.128;21.060;2022-08-01T15:52:41;100055.66;;;27.55;48.06
43683;BME280;29285;52.128;21.060;2022-08-01T15:57:42;100059.55;;;27.47;48.01
43683;BME280;29285;52.128;21.060;2022-08-01T16:02:44;100052.99;;;27.35;47.86
43683;BME280;29285;52.128;21.060;2022-08-01T16:07:45;100056.38;;;27.18;47.81
43683;BME280;29285;52.128;21.060;2022-08-01T16:12:46;100057.14;;;26.94;47.75
43683;BME280;29285;52.128;21.060;2022-08-01T16:17:48;100060.89;;;26.56;47.64
43683;BME280;29285;52.128;21.060;2022-08-01T16:22:49;100066.12;;;26.21;47.73
43683;BME280;29285;52.128;21.060;2022-08-01T16:27:51;100069.48;;;25.92;47.94
43683;BME280;29285;52.128;21.060;2022-08-01T16:32:52;100079.31;;;25.70;48.21
43683;BME280;29285;52.128;21.060;2022-08-01T16:37:53;100080.46;;;25.50;48.50
43683;BME280;29285;52.128;21.060;2022-08-01T16:42:54;100088.88;;;25.29;48.72
43683;BME280;29285;52.128;21.060;2022-08-01T16:47:56;100085.83;;;25.06;48.87
43683;BME280;29285;52.128;21.060;2022-08-01T16:52:57;100087.28;;;24.82;48.96
43683;BME280;29285;52.128;21.060;2022-08-01T16:57:58;100089.48;;;24.65;49.15
43683;BME280;29285;52.128;21.060;2022-08-01T17:03:00;100085.03;;;24.49;49.40
43683;BME280;29285;52.128;21.060;2022-08-01T17:08:01;100084.41;;;24.33;49.71
43683;BME280;29285;52.128;21.060;2022-08-01T17:13:02;100090.34;;;24.20;50.03
43683;BME280;29285;52.128;21.060;2022-08-01T17:18:04;100090.31;;;24.09;50.38
43683;BME280;29285;52.128;21.060;2022-08-01T17:23:06;100098.27;;;24.03;50.72
43683;BME280;29285;52.128;21.060;2022-08-01T17:28:07;100102.84;;;23.95;51.05
43683;BME280;29285;52.128;21.060;2022-08-01T17:33:10;100105.69;;;23.86;51.30
43683;BME280;29285;52.128;21.060;2022-08-01T17:38:11;100100.73;;;23.82;51.61
43683;BME280;29285;52.128;21.060;2022-08-01T17:43:12;100113.27;;;23.74;51.87
43683;BME280;29285;52.128;21.060;2022-08-01T17:48:14;100106.35;;;23.65;52.10
43683;BME280;29285;52.128;21.060;2022-08-01T17:53:17;100109.95;;;23.59;52.36
43683;BME280;29285;52.128;21.060;2022-08-01T17:58:20;100113.92;;;23.53;52.60
43683;BME280;29285;52.128;21.060;2022-08-01T18:03:21;100122.47;;;23.51;52.95
43683;BME280;29285;52.128;21.060;2022-08-01T18:08:22;100117.05;;;23.47;53.23
43683;BME280;29285;52.128;21.060;2022-08-01T18:13:24;100121.45;;;23.40;53.47
43683;BME280;29285;52.128;21.060;2022-08-01T18:18:25;100120.77;;;23.31;53.69
43683;BME280;29285;52.128;21.060;2022-08-01T18:23:27;100121.47;;;23.22;53.93
43683;BME280;29285;52.128;21.060;2022-08-01T18:28:29;100128.06;;;23.16;54.21
43683;BME280;29285;52.128;21.060;2022-08-01T18:33:30;100130.67;;;23.10;54.48
43683;BME280;29285;52.128;21.060;2022-08-01T18:38:31;100138.51;;;23.06;54.72
43683;BME280;29285;52.128;21.060;2022-08-01T18:43:32;100136.27;;;23.00;54.97
43683;BME280;29285;52.128;21.060;2022-08-01T18:48:35;100138.80;;;22.96;55.23
43683;BME280;29285;52.128;21.060;2022-08-01T18:53:37;100144.52;;;22.90;55.53
43683;BME280;29285;52.128;21.060;2022-08-01T18:58:40;100147.98;;;22.84;55.76
43683;BME280;29285;52.128;21.060;2022-08-01T19:03:44;100155.78;;;22.80;56.01
43683;BME280;29285;52.128;21.060;2022-08-01T19:08:46;100160.00;;;22.77;56.27
43683;BME280;29285;52.128;21.060;2022-08-01T19:13:48;100162.02;;;22.73;56.51
43683;BME280;29285;52.128;21.060;2022-08-01T19:18:49;100166.04;;;22.66;56.75
43683;BME280;29285;52.128;21.060;2022-08-01T19:23:50;100167.70;;;22.61;56.99
43683;BME280;29285;52.128;21.060;2022-08-01T19:29:14;100168.14;;;22.55;57.23
43683;BME280;29285;52.128;21.060;2022-08-01T19:34:19;100171.52;;;22.50;57.50
43683;BME280;29285;52.128;21.060;2022-08-01T19:39:23;100171.85;;;22.45;57.78
43683;BME280;29285;52.128;21.060;2022-08-01T19:44:27;100179.97;;;22.37;58.03
43683;BME280;29285;52.128;21.060;2022-08-01T19:49:29;100186.25;;;22.28;58.32
43683;BME280;29285;52.128;21.060;2022-08-01T19:54:33;100182.51;;;22.25;58.62
43683;BME280;29285;52.128;21.060;2022-08-01T19:59:38;100175.22;;;22.21;58.92
43683;BME280;29285;52.128;21.060;2022-08-01T20:04:41;100182.06;;;22.18;59.19
43683;BME280;29285;52.128;21.060;2022-08-01T20:09:45;100182.95;;;22.12;59.41
43683;BME280;29285;52.128;21.060;2022-08-01T20:14:50;100189.41;;;22.07;59.64
43683;BME280;29285;52.128;21.060;2022-08-01T20:19:53;100190.66;;;22.02;59.88
43683;BME280;29285;52.128;21.060;2022-08-01T20:24:56;100189.84;;;21.94;60.08
43683;BME280;29285;52.128;21.060;2022-08-01T20:29:59;100198.20;;;21.88;60.29
43683;BME280;29285;52.128;21.060;2022-08-01T20:35:02;100197.56;;;21.84;60.52
43683;BME280;29285;52.128;21.060;2022-08-01T20:40:06;100204.50;;;21.79;60.76
43683;BME280;29285;52.128;21.060;2022-08-01T20:45:09;100198.80;;;21.78;61.03
43683;BME280;29285;52.128;21.060;2022-08-01T20:50:11;100198.06;;;21.76;61.25
43683;BME280;29285;52.128;21.060;2022-08-01T20:55:38;100197.95;;;21.71;61.44
43683;BME280;29285;52.128;21.060;2022-08-01T21:00:47;100197.31;;;21.67;61.64
43683;BME280;29285;52.128;21.060;2022-08-01T21:05:56;100202.33;;;21.64;61.88
43683;BME280;29285;52.128;21.060;2022-08-01T21:11:01;100201.31;;;21.60;62.04
43683;BME280;29285;52.128;21.060;2022-08-01T21:16:03;100207.38;;;21.54;62.22
43683;BME280;29285;52.128;21.060;2022-08-01T21:21:14;100203.69;;;21.50;62.35
43683;BME280;29285;52.128;21.060;2022-08-01T21:26:19;100206.55;;;21.47;62.53
43683;BME280;29285;52.128;21.060;2022-08-01T21:31:21;100212.49;;;21.43;62.71
43683;BME280;29285;52.128;21.060;2022-08-01T21:36:22;100206.92;;;21.40;62.89
43683;BME280;29285;52.128;21.060;2022-08-01T21:41:26;100219.33;;;21.40;63.10
43683;BME280;29285;52.128;21.060;2022-08-01T21:46:32;100217.23;;;21.38;63.27
43683;BME280;29285;52.128;21.060;2022-08-01T21:51:42;100215.54;;;21.37;63.42
43683;BME280;29285;52.128;21.060;2022-08-01T22:02:28;100209.78;;;21.30;63.73
43683;BME280;29285;52.128;21.060;2022-08-01T22:07:47;100211.41;;;21.25;63.87
43683;BME280;29285;52.128;21.060;2022-08-01T22:12:53;100213.41;;;21.22;64.01
43683;BME280;29285;52.128;21.060;2022-08-01T22:17:54;100218.50;;;21.18;64.15
43683;BME280;29285;52.128;21.060;2022-08-01T22:22:57;100213.02;;;21.13;64.30
43683;BME280;29285;52.128;21.060;2022-08-01T22:27:59;100221.27;;;21.09;64.41
43683;BME280;29285;52.128;21.060;2022-08-01T22:33:02;100219.84;;;21.03;64.55
43683;BME280;29285;52.128;21.060;2022-08-01T22:38:04;100220.22;;;20.97;64.68
43683;BME280;29285;52.128;21.060;2022-08-01T22:43:11;100226.92;;;20.95;64.82
43683;BME280;29285;52.128;21.060;2022-08-01T22:48:21;100230.52;;;20.94;64.98
43683;BME280;29285;52.128;21.060;2022-08-01T22:53:49;100224.95;;;20.92;65.11
43683;BME280;29285;52.128;21.060;2022-08-01T22:58:58;100233.34;;;20.91;65.26
43683;BME280;29285;52.128;21.060;2022-08-01T23:04:03;100232.97;;;20.90;65.38
43683;BME280;29285;52.128;21.060;2022-08-01T23:09:06;100234.01;;;20.87;65.52
43683;BME280;29285;52.128;21.060;2022-08-01T23:14:08;100228.80;;;20.86;65.59
43683;BME280;29285;52.128;21.060;2022-08-01T23:19:10;100232.38;;;20.85;65.73
43683;BME280;29285;52.128;21.060;2022-08-01T23:24:13;100230.27;;;20.83;65.86
43683;BME280;29285;52.128;21.060;2022-08-01T23:29:14;100231.59;;;20.83;66.02
43683;BME280;29285;52.128;21.060;2022-08-01T23:34:15;100235.19;;;20.82;66.13
43683;BME280;29285;52.128;21.060;2022-08-01T23:39:17;100240.10;;;20.81;66.25
43683;BME280;29285;52.128;21.060;2022-08-01T23:44:18;100239.73;;;20.80;66.38
43683;BME280;29285;52.128;21.060;2022-08-01T23:49:19;100237.27;;;20.76;66.48
43683;BME280;29285;52.128;21.060;2022-08-01T23:54:21;100233.09;;;20.72;66.56
43683;BME280;29285;52.128;21.060;2022-08-01T23:59:22;100239.70;;;20.72;66.72
